sensor_id;sensor_type;location;lat;lon;timestamp;pressure;altitude;pressure_sealevel;temperature;humidity
62632;BME280;48703;51.248;-0.546;2023-01-27T00:00:27;102450;;;4.00;91.58
62632;BME280;48703;51.248;-0.546;2023-01-27T00:03:29;102445;;;3.99;91.25
62632;BME280;48703;51.248;-0.546;2023-01-27T00:06:30;102442;;;3.98;91.16
62632;BME280;48703;51.248;-0.546;2023-01-27T00:09:32;102442;;;3.97;90.88
62632;BME280;48703;51.248;-0.546;2023-01-27T00:12:34;102443;;;3.97;90.90
62632;BME280;48703;51.248;-0.546;2023-01-27T00:15:36;102446;;;3.97;90.93
62632;BME280;48703;51.248;-0.546;2023-01-27T00:18:38;102444;;;3.97;90.73
62632;BME280;48703;51.248;-0.546;2023-01-27T00:21:40;102436;;;3.97;90.79
62632;BME280;48703;51.248;-0.546;2023-01-27T00:24:42;102436;;;3.95;90.43
62632;BME280;48703;51.248;-0.546;2023-01-27T00:27:44;102433;;;3.93;90.09
62632;BME280;48703;51.248;-0.546;2023-01-27T00:30:46;102431;;;3.95;90.40
62632;BME280;48703;51.248;-0.546;2023-01-27T00:33:48;102426;;;3.94;89.83
62632;BME280;48703;51.248;-0.546;2023-01-27T00:36:49;102430;;;3.94;90.16
62632;BME280;48703;51.248;-0.546;2023-01-27T00:39:51;102431;;;3.93;89.93
62632;BME280;48703;51.248;-0.546;2023-01-27T00:42:53;102423;;;3.92;89.85
62632;BME280;48703;51.248;-0.546;2023-01-27T00:45:55;102425;;;3.91;89.69
62632;BME280;48703;51.248;-0.546;2023-01-27T00:48:57;102428;;;3.92;89.75
62632;BME280;48703;51.248;-0.546;2023-01-27T00:51:59;102430;;;3.92;89.66
62632;BME280;48703;51.248;-0.546;2023-01-27T00:55:01;102428;;;3.91;89.46
62632;BME280;48703;51.248;-0.546;2023-01-27T00:58:03;102419;;;3.89;89.13
62632;BME280;48703;51.248;-0.546;2023-01-27T01:01:05;102417;;;3.88;89.09
62632;BME280;48703;51.248;-0.546;2023-01-27T01:04:07;102415;;;3.87;89.11
62632;BME280;48703;51.248;-0.546;2023-01-27T01:07:09;102410;;;3.88;89.24
62632;BME280;48703;51.248;-0.546;2023-01-27T01:10:10;102414;;;3.88;89.28
62632;BME280;48703;51.248;-0.546;2023-01-27T01:13:12;102413;;;3.88;88.82
62632;BME280;48703;51.248;-0.546;2023-01-27T01:16:15;102406;;;3.86;88.77
62632;BME280;48703;51.248;-0.546;2023-01-27T01:19:16;102406;;;3.87;88.78
62632;BME280;48703;51.248;-0.546;2023-01-27T01:22:18;102405;;;3.85;88.52
62632;BME280;48703;51.248;-0.546;2023-01-27T01:25:20;102404;;;3.85;88.51
62632;BME280;48703;51.248;-0.546;2023-01-27T01:28:22;102406;;;3.84;88.29
62632;BME280;48703;51.248;-0.546;2023-01-27T01:31:24;102407;;;3.82;88.03
62632;BME280;48703;51.248;-0.546;2023-01-27T01:34:26;102408;;;3.82;87.95
62632;BME280;48703;51.248;-0.546;2023-01-27T01:37:28;102415;;;3.81;87.47
62632;BME280;48703;51.248;-0.546;2023-01-27T01:40:29;102410;;;3.80;87.73
62632;BME280;48703;51.248;-0.546;2023-01-27T01:43:31;102401;;;3.80;87.80
62632;BME280;48703;51.248;-0.546;2023-01-27T01:45:51;102402;;;3.78;87.31
62632;BME280;48703;51.248;-0.546;2023-01-27T01:48:35;102400;;;3.78;87.59
62632;BME280;48703;51.248;-0.546;2023-01-27T01:51:37;102402;;;3.76;87.42
62632;BME280;48703;51.248;-0.546;2023-01-27T01:54:39;102403;;;3.76;87.55
62632;BME280;48703;51.248;-0.546;2023-01-27T01:57:40;102402;;;3.76;88.34
62632;BME280;48703;51.248;-0.546;2023-01-27T02:00:42;102402;;;3.76;88.44
62632;BME280;48703;51.248;-0.546;2023-01-27T02:03:46;102398;;;3.75;88.17
62632;BME280;48703;51.248;-0.546;2023-01-27T02:06:48;102398;;;3.75;88.43
62632;BME280;48703;51.248;-0.546;2023-01-27T02:09:48;102399;;;3.74;87.79
62632;BME280;48703;51.248;-0.546;2023-01-27T02:12:50;102392;;;3.73;87.69
62632;BME280;48703;51.248;-0.546;2023-01-27T02:15:52;102389;;;3.72;87.98
62632;BME280;48703;51.248;-0.546;2023-01-27T02:18:53;102386;;;3.71;87.58
62632;BME280;48703;51.248;-0.546;2023-01-27T02:21:55;102377;;;3.71;87.58
62632;BME280;48703;51.248;-0.546;2023-01-27T02:24:59;102376;;;3.70;87.62
62632;BME280;48703;51.248;-0.546;2023-01-27T02:27:59;102376;;;3.71;87.86
62632;BME280;48703;51.248;-0.546;2023-01-27T02:31:01;102377;;;3.69;87.81
62632;BME280;48703;51.248;-0.546;2023-01-27T02:34:04;102382;;;3.69;87.81
62632;BME280;48703;51.248;-0.546;2023-01-27T02:37:05;102382;;;3.69;87.93
62632;BME280;48703;51.248;-0.546;2023-01-27T02:40:07;102380;;;3.68;87.76
62632;BME280;48703;51.248;-0.546;2023-01-27T02:43:09;102380;;;3.67;87.87
62632;BME280;48703;51.248;-0.546;2023-01-27T02:46:10;102375;;;3.68;88.02
62632;BME280;48703;51.248;-0.546;2023-01-27T02:49:12;102371;;;3.69;88.30
62632;BME280;48703;51.248;-0.546;2023-01-27T02:52:14;102367;;;3.68;87.85
62632;BME280;48703;51.248;-0.546;2023-01-27T02:55:16;102360;;;3.67;88.02
62632;BME280;48703;51.248;-0.546;2023-01-27T02:58:18;102356;;;3.66;88.02
62632;BME280;48703;51.248;-0.546;2023-01-27T03:01:20;102350;;;3.64;87.99
62632;BME280;48703;51.248;-0.546;2023-01-27T03:04:22;102357;;;3.64;88.31
62632;BME280;48703;51.248;-0.546;2023-01-27T03:07:24;102355;;;3.61;88.31
62632;BME280;48703;51.248;-0.546;2023-01-27T03:10:26;102354;;;3.60;88.27
62632;BME280;48703;51.248;-0.546;2023-01-27T03:13:28;102354;;;3.60;88.27
62632;BME280;48703;51.248;-0.546;2023-01-27T03:16:29;102354;;;3.58;88.30
62632;BME280;48703;51.248;-0.546;2023-01-27T03:19:31;102353;;;3.58;88.29
62632;BME280;48703;51.248;-0.546;2023-01-27T03:22:33;102355;;;3.57;88.35
62632;BME280;48703;51.248;-0.546;2023-01-27T03:25:35;102361;;;3.57;88.35
62632;BME280;48703;51.248;-0.546;2023-01-27T03:28:37;102360;;;3.57;88.58
62632;BME280;48703;51.248;-0.546;2023-01-27T03:31:39;102359;;;3.56;88.50
62632;BME280;48703;51.248;-0.546;2023-01-27T03:34:41;102364;;;3.58;88.71
62632;BME280;48703;51.248;-0.546;2023-01-27T03:37:43;102369;;;3.59;88.97
62632;BME280;48703;51.248;-0.546;2023-01-27T03:40:45;102370;;;3.59;88.86
62632;BME280;48703;51.248;-0.546;2023-01-27T03:43:47;102373;;;3.58;88.81
62632;BME280;48703;51.248;-0.546;2023-01-27T03:46:48;102374;;;3.57;88.91
62632;BME280;48703;51.248;-0.546;2023-01-27T03:49:50;102370;;;3.56;88.86
62632;BME280;48703;51.248;-0.546;2023-01-27T03:52:52;102365;;;3.56;89.14
62632;BME280;48703;51.248;-0.546;2023-01-27T03:55:54;102362;;;3.55;89.03
62632;BME280;48703;51.248;-0.546;2023-01-27T03:58:56;102365;;;3.55;89.59
62632;BME280;48703;51.248;-0.546;2023-01-27T04:01:59;102369;;;3.56;89.69
62632;BME280;48703;51.248;-0.546;2023-01-27T04:05:00;102370;;;3.56;89.53
62632;BME280;48703;51.248;-0.546;2023-01-27T04:08:03;102367;;;3.56;89.67
62632;BME280;48703;51.248;-0.546;2023-01-27T04:11:04;102361;;;3.54;89.75
62632;BME280;48703;51.248;-0.546;2023-01-27T04:14:06;102360;;;3.53;89.80
62632;BME280;48703;51.248;-0.546;2023-01-27T04:17:09;102357;;;3.53;89.86
62632;BME280;48703;51.248;-0.546;2023-01-27T04:20:10;102358;;;3.52;89.74
62632;BME280;48703;51.248;-0.546;2023-01-27T04:23:11;102357;;;3.51;89.82
62632;BME280;48703;51.248;-0.546;2023-01-27T04:26:13;102360;;;3.50;90.00
62632;BME280;48703;51.248;-0.546;2023-01-27T04:29:15;102359;;;3.49;90.10
62632;BME280;48703;51.248;-0.546;2023-01-27T04:32:17;102356;;;3.47;90.38
62632;BME280;48703;51.248;-0.546;2023-01-27T04:35:19;102353;;;3.48;90.34
62632;BME280;48703;51.248;-0.546;2023-01-27T04:38:21;102355;;;3.48;90.33
62632;BME280;48703;51.248;-0.546;2023-01-27T04:41:23;102356;;;3.48;90.30
62632;BME280;48703;51.248;-0.546;2023-01-27T04:44:25;102350;;;3.46;90.38
62632;BME280;48703;51.248;-0.546;2023-01-27T04:47:26;102347;;;3.45;90.50
62632;BME280;48703;51.248;-0.546;2023-01-27T04:50:28;102345;;;3.45;90.59
62632;BME280;48703;51.248;-0.546;2023-01-27T04:53:30;102344;;;3.45;90.65
62632;BME280;48703;51.248;-0.546;2023-01-27T04:56:33;102346;;;3.44;90.74
62632;BME280;48703;51.248;-0.546;2023-01-27T04:59:34;102345;;;3.45;90.74
62632;BME280;48703;51.248;-0.546;2023-01-27T05:02:36;102342;;;3.44;90.82
62632;BME280;48703;51.248;-0.546;2023-01-27T05:05:38;102341;;;3.43;90.91
62632;BME280;48703;51.248;-0.546;2023-01-27T05:08:40;102342;;;3.43;91.14
62632;BME280;48703;51.248;-0.546;2023-01-27T05:11:42;102341;;;3.43;92.01
62632;BME280;48703;51.248;-0.546;2023-01-27T05:14:43;102348;;;3.41;92.59
62632;BME280;48703;51.248;-0.546;2023-01-27T05:17:45;102350;;;3.37;93.18
62632;BME280;48703;51.248;-0.546;2023-01-27T05:20:47;102344;;;3.33;93.84
62632;BME280;48703;51.248;-0.546;2023-01-27T05:23:50;102352;;;3.32;94.13
62632;BME280;48703;51.248;-0.546;2023-01-27T05:26:51;102350;;;3.32;94.27
62632;BME280;48703;51.248;-0.546;2023-01-27T05:29:53;102350;;;3.32;94.40
62632;BME280;48703;51.248;-0.546;2023-01-27T05:32:55;102346;;;3.32;94.28
62632;BME280;48703;51.248;-0.546;2023-01-27T05:35:57;102345;;;3.31;94.53
62632;BME280;48703;51.248;-0.546;2023-01-27T05:38:59;102346;;;3.31;94.57
62632;BME280;48703;51.248;-0.546;2023-01-27T05:42:01;102345;;;3.32;94.57
62632;BME280;48703;51.248;-0.546;2023-01-27T05:45:03;102344;;;3.33;94.69
62632;BME280;48703;51.248;-0.546;2023-01-27T05:48:05;102338;;;3.34;94.68
62632;BME280;48703;51.248;-0.546;2023-01-27T05:51:06;102339;;;3.35;94.88
62632;BME280;48703;51.248;-0.546;2023-01-27T05:54:08;102340;;;3.37;94.75
62632;BME280;48703;51.248;-0.546;2023-01-27T05:57:10;102339;;;3.40;94.71
62632;BME280;48703;51.248;-0.546;2023-01-27T06:00:13;102342;;;3.40;94.73
62632;BME280;48703;51.248;-0.546;2023-01-27T06:03:14;102340;;;3.41;95.04
62632;BME280;48703;51.248;-0.546;2023-01-27T06:06:16;102343;;;3.40;95.06
62632;BME280;48703;51.248;-0.546;2023-01-27T06:09:18;102343;;;3.42;94.95
62632;BME280;48703;51.248;-0.546;2023-01-27T06:12:20;102346;;;3.44;94.86
62632;BME280;48703;51.248;-0.546;2023-01-27T06:15:21;102350;;;3.45;95.01
62632;BME280;48703;51.248;-0.546;2023-01-27T06:18:23;102349;;;3.46;94.84
62632;BME280;48703;51.248;-0.546;2023-01-27T06:21:25;102349;;;3.46;94.96
62632;BME280;48703;51.248;-0.546;2023-01-27T06:24:27;102346;;;3.47;95.02
62632;BME280;48703;51.248;-0.546;2023-01-27T06:27:29;102347;;;3.47;95.00
62632;BME280;48703;51.248;-0.546;2023-01-27T06:30:31;102343;;;3.47;94.94
62632;BME280;48703;51.248;-0.546;2023-01-27T06:33:33;102344;;;3.47;94.95
62632;BME280;48703;51.248;-0.546;2023-01-27T06:36:35;102346;;;3.48;94.98
62632;BME280;48703;51.248;-0.546;2023-01-27T06:39:37;102347;;;3.48;94.82
62632;BME280;48703;51.248;-0.546;2023-01-27T06:42:40;102346;;;3.49;94.85
62632;BME280;48703;51.248;-0.546;2023-01-27T06:45:40;102345;;;3.49;94.84
62632;BME280;48703;51.248;-0.546;2023-01-27T06:48:42;102347;;;3.49;94.71
62632;BME280;48703;51.248;-0.546;2023-01-27T06:51:44;102351;;;3.48;94.92
62632;BME280;48703;51.248;-0.546;2023-01-27T06:54:46;102352;;;3.47;94.83
62632;BME280;48703;51.248;-0.546;2023-01-27T06:57:48;102358;;;3.46;94.84
62632;BME280;48703;51.248;-0.546;2023-01-27T07:00:50;102355;;;3.47;94.73
62632;BME280;48703;51.248;-0.546;2023-01-27T07:03:52;102349;;;3.46;94.36
62632;BME280;48703;51.248;-0.546;2023-01-27T07:06:54;102350;;;3.46;94.24
62632;BME280;48703;51.248;-0.546;2023-01-27T07:09:56;102347;;;3.48;94.13
62632;BME280;48703;51.248;-0.546;2023-01-27T07:13:05;102349;;;3.47;94.17
62632;BME280;48703;51.248;-0.546;2023-01-27T07:15:59;102351;;;3.46;93.87
62632;BME280;48703;51.248;-0.546;2023-01-27T07:19:01;102351;;;3.46;93.64
62632;BME280;48703;51.248;-0.546;2023-01-27T07:22:03;102345;;;3.45;93.40
62632;BME280;48703;51.248;-0.546;2023-01-27T07:25:05;102345;;;3.46;93.62
62632;BME280;48703;51.248;-0.546;2023-01-27T07:28:08;102347;;;3.47;93.54
62632;BME280;48703;51.248;-0.546;2023-01-27T07:31:09;102344;;;3.47;93.43
62632;BME280;48703;51.248;-0.546;2023-01-27T07:34:11;102348;;;3.46;93.19
62632;BME280;48703;51.248;-0.546;2023-01-27T07:37:13;102350;;;3.46;93.32
62632;BME280;48703;51.248;-0.546;2023-01-27T07:40:15;102355;;;3.46;93.30
62632;BME280;48703;51.248;-0.546;2023-01-27T07:43:17;102362;;;3.46;93.40
62632;BME280;48703;51.248;-0.546;2023-01-27T07:46:18;102364;;;3.47;93.26
62632;BME280;48703;51.248;-0.546;2023-01-27T07:49:20;102371;;;3.46;92.70
62632;BME280;48703;51.248;-0.546;2023-01-27T07:52:22;102367;;;3.47;92.58
62632;BME280;48703;51.248;-0.546;2023-01-27T07:55:24;102365;;;3.47;92.90
62632;BME280;48703;51.248;-0.546;2023-01-27T07:58:26;102364;;;3.48;92.83
62632;BME280;48703;51.248;-0.546;2023-01-27T08:01:28;102369;;;3.48;92.61
62632;BME280;48703;51.248;-0.546;2023-01-27T08:04:30;102372;;;3.49;92.93
62632;BME280;48703;51.248;-0.546;2023-01-27T08:07:32;102377;;;3.49;92.70
62632;BME280;48703;51.248;-0.546;2023-01-27T08:10:34;102383;;;3.50;92.51
62632;BME280;48703;51.248;-0.546;2023-01-27T08:13:35;102390;;;3.51;92.44
62632;BME280;48703;51.248;-0.546;2023-01-27T08:16:37;102388;;;3.51;92.42
62632;BME280;48703;51.248;-0.546;2023-01-27T08:19:39;102386;;;3.51;92.02
62632;BME280;48703;51.248;-0.546;2023-01-27T08:22:41;102382;;;3.53;92.26
62632;BME280;48703;51.248;-0.546;2023-01-27T08:25:47;102380;;;3.54;92.26
62632;BME280;48703;51.248;-0.546;2023-01-27T08:28:45;102386;;;3.54;92.17
62632;BME280;48703;51.248;-0.546;2023-01-27T08:31:47;102389;;;3.55;92.12
62632;BME280;48703;51.248;-0.546;2023-01-27T08:34:49;102394;;;3.57;92.14
62632;BME280;48703;51.248;-0.546;2023-01-27T08:37:51;102400;;;3.59;92.09
62632;BME280;48703;51.248;-0.546;2023-01-27T08:40:53;102401;;;3.60;92.17
62632;BME280;48703;51.248;-0.546;2023-01-27T08:43:54;102398;;;3.61;91.63
62632;BME280;48703;51.248;-0.546;2023-01-27T08:46:56;102398;;;3.63;91.84
62632;BME280;48703;51.248;-0.546;2023-01-27T08:49:58;102397;;;3.65;91.84
62632;BME280;48703;51.248;-0.546;2023-01-27T08:53:00;102395;;;3.68;91.68
62632;BME280;48703;51.248;-0.546;2023-01-27T08:56:03;102403;;;3.70;91.86
62632;BME280;48703;51.248;-0.546;2023-01-27T08:59:04;102407;;;3.72;91.32
62632;BME280;48703;51.248;-0.546;2023-01-27T09:02:06;102409;;;3.73;90.96
62632;BME280;48703;51.248;-0.546;2023-01-27T09:05:08;102409;;;3.74;91.13
62632;BME280;48703;51.248;-0.546;2023-01-27T09:08:10;102409;;;3.76;90.93
62632;BME280;48703;51.248;-0.546;2023-01-27T09:11:13;102410;;;3.78;90.54
62632;BME280;48703;51.248;-0.546;2023-01-27T09:14:13;102416;;;3.81;91.14
62632;BME280;48703;51.248;-0.546;2023-01-27T09:17:15;102415;;;3.83;90.76
62632;BME280;48703;51.248;-0.546;2023-01-27T09:20:17;102412;;;3.85;90.71
62632;BME280;48703;51.248;-0.546;2023-01-27T09:23:19;102420;;;3.88;90.59
62632;BME280;48703;51.248;-0.546;2023-01-27T09:26:21;102423;;;3.90;90.81
62632;BME280;48703;51.248;-0.546;2023-01-27T09:29:23;102424;;;3.93;90.57
62632;BME280;48703;51.248;-0.546;2023-01-27T09:32:25;102426;;;3.96;90.20
62632;BME280;48703;51.248;-0.546;2023-01-27T09:35:29;102419;;;4.03;89.90
62632;BME280;48703;51.248;-0.546;2023-01-27T09:38:29;102413;;;4.09;89.55
62632;BME280;48703;51.248;-0.546;2023-01-27T09:41:36;102410;;;4.10;88.90
62632;BME280;48703;51.248;-0.546;2023-01-27T09:44:37;102412;;;4.12;88.92
62632;BME280;48703;51.248;-0.546;2023-01-27T09:47:38;102411;;;4.14;88.82
62632;BME280;48703;51.248;-0.546;2023-01-27T09:50:38;102414;;;4.19;89.02
62632;BME280;48703;51.248;-0.546;2023-01-27T09:53:43;102408;;;4.27;89.67
62632;BME280;48703;51.248;-0.546;2023-01-27T09:56:42;102404;;;4.29;88.13
62632;BME280;48703;51.248;-0.546;2023-01-27T09:59:45;102403;;;4.31;88.40
62632;BME280;48703;51.248;-0.546;2023-01-27T10:02:50;102409;;;4.35;88.58
62632;BME280;48703;51.248;-0.546;2023-01-27T10:05:51;102409;;;4.40;89.07
62632;BME280;48703;51.248;-0.546;2023-01-27T10:08:51;102407;;;4.42;87.27
62632;BME280;48703;51.248;-0.546;2023-01-27T10:11:51;102413;;;4.47;88.40
62632;BME280;48703;51.248;-0.546;2023-01-27T10:14:54;102414;;;4.52;88.20
62632;BME280;48703;51.248;-0.546;2023-01-27T10:17:56;102412;;;4.56;87.80
62632;BME280;48703;51.248;-0.546;2023-01-27T10:20:57;102417;;;4.58;86.74
62632;BME280;48703;51.248;-0.546;2023-01-27T10:23:59;102423;;;4.62;87.95
62632;BME280;48703;51.248;-0.546;2023-01-27T10:26:59;102424;;;4.66;87.40
62632;BME280;48703;51.248;-0.546;2023-01-27T10:30:02;102427;;;4.71;87.24
62632;BME280;48703;51.248;-0.546;2023-01-27T10:33:05;102433;;;4.76;86.70
62632;BME280;48703;51.248;-0.546;2023-01-27T10:36:05;102428;;;4.81;86.40
62632;BME280;48703;51.248;-0.546;2023-01-27T10:39:10;102428;;;4.87;86.52
62632;BME280;48703;51.248;-0.546;2023-01-27T10:42:11;102426;;;4.92;86.53
62632;BME280;48703;51.248;-0.546;2023-01-27T10:45:15;102421;;;4.97;84.85
62632;BME280;48703;51.248;-0.546;2023-01-27T10:48:17;102415;;;5.04;86.05
62632;BME280;48703;51.248;-0.546;2023-01-27T10:51:15;102415;;;5.08;84.59
62632;BME280;48703;51.248;-0.546;2023-01-27T10:54:17;102413;;;5.12;84.90
62632;BME280;48703;51.248;-0.546;2023-01-27T10:57:19;102413;;;5.14;85.31
62632;BME280;48703;51.248;-0.546;2023-01-27T11:00:21;102414;;;5.17;84.97
62632;BME280;48703;51.248;-0.546;2023-01-27T11:03:23;102407;;;5.20;85.15
62632;BME280;48703;51.248;-0.546;2023-01-27T11:06:24;102402;;;5.22;83.61
62632;BME280;48703;51.248;-0.546;2023-01-27T11:09:27;102396;;;5.24;82.88
62632;BME280;48703;51.248;-0.546;2023-01-27T11:12:28;102395;;;5.26;83.36
62632;BME280;48703;51.248;-0.546;2023-01-27T11:15:30;102390;;;5.29;82.23
62632;BME280;48703;51.248;-0.546;2023-01-27T11:18:33;102390;;;5.29;82.18
62632;BME280;48703;51.248;-0.546;2023-01-27T11:21:33;102384;;;5.30;82.88
62632;BME280;48703;51.248;-0.546;2023-01-27T11:24:38;102380;;;5.31;82.57
62632;BME280;48703;51.248;-0.546;2023-01-27T11:27:45;102383;;;5.31;81.32
62632;BME280;48703;51.248;-0.546;2023-01-27T11:30:41;102376;;;5.33;81.14
62632;BME280;48703;51.248;-0.546;2023-01-27T11:33:47;102373;;;5.34;80.75
62632;BME280;48703;51.248;-0.546;2023-01-27T11:36:43;102376;;;5.35;81.81
62632;BME280;48703;51.248;-0.546;2023-01-27T11:39:44;102374;;;5.37;81.41
62632;BME280;48703;51.248;-0.546;2023-01-27T11:42:46;102376;;;5.40;80.49
62632;BME280;48703;51.248;-0.546;2023-01-27T11:45:49;102374;;;5.42;80.87
62632;BME280;48703;51.248;-0.546;2023-01-27T11:48:51;102372;;;5.46;81.00
62632;BME280;48703;51.248;-0.546;2023-01-27T11:51:52;102365;;;5.52;81.00
62632;BME280;48703;51.248;-0.546;2023-01-27T11:54:56;102365;;;5.58;80.12
62632;BME280;48703;51.248;-0.546;2023-01-27T11:57:56;102359;;;5.59;81.41
62632;BME280;48703;51.248;-0.546;2023-01-27T12:00:58;102356;;;5.58;80.04
62632;BME280;48703;51.248;-0.546;2023-01-27T12:04:01;102357;;;5.58;79.66
62632;BME280;48703;51.248;-0.546;2023-01-27T12:07:03;102355;;;5.62;80.68
62632;BME280;48703;51.248;-0.546;2023-01-27T12:10:07;102353;;;5.68;82.32
62632;BME280;48703;51.248;-0.546;2023-01-27T12:13:06;102354;;;5.75;80.64
62632;BME280;48703;51.248;-0.546;2023-01-27T12:16:07;102356;;;5.82;80.42
62632;BME280;48703;51.248;-0.546;2023-01-27T12:19:16;102358;;;5.88;80.35
62632;BME280;48703;51.248;-0.546;2023-01-27T12:22:13;102357;;;5.93;80.70
62632;BME280;48703;51.248;-0.546;2023-01-27T12:25:14;102360;;;5.96;80.58
62632;BME280;48703;51.248;-0.546;2023-01-27T12:28:18;102356;;;6.00;81.50
62632;BME280;48703;51.248;-0.546;2023-01-27T12:31:18;102354;;;6.03;81.02
62632;BME280;48703;51.248;-0.546;2023-01-27T12:34:21;102355;;;6.06;80.38
62632;BME280;48703;51.248;-0.546;2023-01-27T12:37:21;102356;;;6.08;79.51
62632;BME280;48703;51.248;-0.546;2023-01-27T12:40:23;102357;;;6.11;80.23
62632;BME280;48703;51.248;-0.546;2023-01-27T12:43:24;102351;;;6.12;79.52
62632;BME280;48703;51.248;-0.546;2023-01-27T12:46:27;102351;;;6.14;79.39
62632;BME280;48703;51.248;-0.546;2023-01-27T12:49:30;102350;;;6.11;77.59
62632;BME280;48703;51.248;-0.546;2023-01-27T12:52:30;102347;;;6.12;78.76
62632;BME280;48703;51.248;-0.546;2023-01-27T12:55:32;102347;;;6.13;78.38
62632;BME280;48703;51.248;-0.546;2023-01-27T12:58:34;102342;;;6.15;77.51
62632;BME280;48703;51.248;-0.546;2023-01-27T13:01:36;102346;;;6.18;77.50
62632;BME280;48703;51.248;-0.546;2023-01-27T13:04:38;102344;;;6.17;76.28
62632;BME280;48703;51.248;-0.546;2023-01-27T13:07:41;102345;;;6.17;76.15
62632;BME280;48703;51.248;-0.546;2023-01-27T13:10:48;102344;;;6.18;77.61
62632;BME280;48703;51.248;-0.546;2023-01-27T13:13:46;102342;;;6.17;75.88
62632;BME280;48703;51.248;-0.546;2023-01-27T13:16:49;102341;;;6.18;76.91
62632;BME280;48703;51.248;-0.546;2023-01-27T13:19:47;102340;;;6.17;76.04
62632;BME280;48703;51.248;-0.546;2023-01-27T13:22:50;102338;;;6.19;77.37
62632;BME280;48703;51.248;-0.546;2023-01-27T13:25:52;102339;;;6.20;77.46
62632;BME280;48703;51.248;-0.546;2023-01-27T13:28:54;102339;;;6.21;76.83
62632;BME280;48703;51.248;-0.546;2023-01-27T13:31:55;102337;;;6.20;75.91
62632;BME280;48703;51.248;-0.546;2023-01-27T13:34:58;102334;;;6.20;76.80
62632;BME280;48703;51.248;-0.546;2023-01-27T13:38:01;102334;;;6.21;76.93
62632;BME280;48703;51.248;-0.546;2023-01-27T13:41:02;102331;;;6.21;77.39
62632;BME280;48703;51.248;-0.546;2023-01-27T13:44:06;102332;;;6.21;76.36
62632;BME280;48703;51.248;-0.546;2023-01-27T13:47:06;102333;;;6.19;75.58
62632;BME280;48703;51.248;-0.546;2023-01-27T13:50:07;102336;;;6.20;77.35
62632;BME280;48703;51.248;-0.546;2023-01-27T13:53:09;102337;;;6.18;76.25
62632;BME280;48703;51.248;-0.546;2023-01-27T13:56:14;102337;;;6.17;75.75
62632;BME280;48703;51.248;-0.546;2023-01-27T13:59:18;102344;;;6.14;74.60
62632;BME280;48703;51.248;-0.546;2023-01-27T14:02:22;102347;;;6.13;75.50
62632;BME280;48703;51.248;-0.546;2023-01-27T14:05:20;102349;;;6.13;77.26
62632;BME280;48703;51.248;-0.546;2023-01-27T14:08:21;102348;;;6.13;75.83
62632;BME280;48703;51.248;-0.546;2023-01-27T14:11:22;102348;;;6.13;75.51
62632;BME280;48703;51.248;-0.546;2023-01-27T14:13:31;102349;;;6.13;75.37
62632;BME280;48703;51.248;-0.546;2023-01-27T14:16:27;102354;;;6.14;75.33
62632;BME280;48703;51.248;-0.546;2023-01-27T14:19:34;102356;;;6.15;75.39
62632;BME280;48703;51.248;-0.546;2023-01-27T14:22:31;102362;;;6.15;75.20
62632;BME280;48703;51.248;-0.546;2023-01-27T14:25:32;102364;;;6.17;75.96
62632;BME280;48703;51.248;-0.546;2023-01-27T14:28:37;102362;;;6.17;75.71
62632;BME280;48703;51.248;-0.546;2023-01-27T14:31:42;102362;;;6.16;75.59
62632;BME280;48703;51.248;-0.546;2023-01-27T14:34:47;102363;;;6.17;76.28
62632;BME280;48703;51.248;-0.546;2023-01-27T14:37:41;102363;;;6.19;76.23
62632;BME280;48703;51.248;-0.546;2023-01-27T14:40:44;102363;;;6.17;75.57
62632;BME280;48703;51.248;-0.546;2023-01-27T14:43:43;102365;;;6.16;76.14
62632;BME280;48703;51.248;-0.546;2023-01-27T14:46:53;102368;;;6.16;75.03
62632;BME280;48703;51.248;-0.546;2023-01-27T14:49:57;102370;;;6.11;73.68
62632;BME280;48703;51.248;-0.546;2023-01-27T14:52:47;102368;;;6.09;73.73
62632;BME280;48703;51.248;-0.546;2023-01-27T14:55:48;102369;;;6.05;74.00
62632;BME280;48703;51.248;-0.546;2023-01-27T14:58:53;102373;;;6.02;74.62
62632;BME280;48703;51.248;-0.546;2023-01-27T15:01:55;102372;;;6.00;73.36
62632;BME280;48703;51.248;-0.546;2023-01-27T15:04:56;102370;;;5.99;73.83
62632;BME280;48703;51.248;-0.546;2023-01-27T15:07:56;102375;;;5.96;72.74
62632;BME280;48703;51.248;-0.546;2023-01-27T15:11:00;102379;;;5.97;74.89
62632;BME280;48703;51.248;-0.546;2023-01-27T15:14:08;102383;;;5.97;73.09
62632;BME280;48703;51.248;-0.546;2023-01-27T15:17:12;102391;;;5.98;74.96
62632;BME280;48703;51.248;-0.546;2023-01-27T15:20:15;102395;;;5.96;74.33
62632;BME280;48703;51.248;-0.546;2023-01-27T15:23:21;102396;;;5.96;75.17
62632;BME280;48703;51.248;-0.546;2023-01-27T15:26:06;102396;;;5.94;73.36
62632;BME280;48703;51.248;-0.546;2023-01-27T15:29:09;102393;;;5.93;73.32
62632;BME280;48703;51.248;-0.546;2023-01-27T15:32:20;102391;;;5.92;73.46
62632;BME280;48703;51.248;-0.546;2023-01-27T15:35:30;102395;;;5.90;72.34
62632;BME280;48703;51.248;-0.546;2023-01-27T15:38:18;102395;;;5.89;73.74
62632;BME280;48703;51.248;-0.546;2023-01-27T15:41:16;102394;;;5.87;73.61
62632;BME280;48703;51.248;-0.546;2023-01-27T15:44:18;102392;;;5.85;72.93
62632;BME280;48703;51.248;-0.546;2023-01-27T15:47:20;102392;;;5.83;72.65
62632;BME280;48703;51.248;-0.546;2023-01-27T15:50:22;102394;;;5.80;71.89
62632;BME280;48703;51.248;-0.546;2023-01-27T15:53:26;102397;;;5.81;74.19
62632;BME280;48703;51.248;-0.546;2023-01-27T15:56:41;102396;;;5.80;74.77
62632;BME280;48703;51.248;-0.546;2023-01-27T15:59:27;102397;;;5.79;75.03
62632;BME280;48703;51.248;-0.546;2023-01-27T16:02:29;102402;;;5.76;73.81
62632;BME280;48703;51.248;-0.546;2023-01-27T16:05:34;102400;;;5.74;74.39
62632;BME280;48703;51.248;-0.546;2023-01-27T16:08:36;102400;;;5.73;75.19
62632;BME280;48703;51.248;-0.546;2023-01-27T16:11:57;102399;;;5.71;76.13
62632;BME280;48703;51.248;-0.546;2023-01-27T16:14:38;102399;;;5.68;76.16
62632;BME280;48703;51.248;-0.546;2023-01-27T16:17:54;102395;;;5.64;75.92
62632;BME280;48703;51.248;-0.546;2023-01-27T16:20:42;102396;;;5.61;76.33
62632;BME280;48703;51.248;-0.546;2023-01-27T16:23:44;102403;;;5.58;75.17
62632;BME280;48703;51.248;-0.546;2023-01-27T16:26:45;102404;;;5.55;75.23